createdAt,value
2019-05-22T00:02:03.497Z,99.90
2019-05-22T00:04:34.692Z,99.90
2019-05-22T00:07:05.156Z,99.90
2019-05-22T00:09:37.673Z,99.90
2019-05-22T00:12:09.768Z,99.90
2019-05-22T00:14:38.617Z,99.90
2019-05-22T00:17:11.130Z,99.90
2019-05-22T00:19:41.439Z,99.90
2019-05-22T00:22:11.947Z,99.90
2019-05-22T00:24:44.304Z,99.90
2019-05-22T00:27:15.101Z,99.90
2019-05-22T00:29:46.447Z,99.90
2019-05-22T00:32:16.938Z,99.90
2019-05-22T00:34:47.216Z,99.90
2019-05-22T00:37:17.729Z,99.90
2019-05-22T00:39:48.803Z,99.90
2019-05-22T00:42:19.321Z,99.90
2019-05-22T00:44:49.008Z,99.90
2019-05-22T00:47:22.474Z,99.90
2019-05-22T00:49:53.200Z,99.90
2019-05-22T00:52:45.325Z,99.90
2019-05-22T00:55:27.863Z,99.90
2019-05-22T00:57:58.732Z,99.90
2019-05-22T01:00:34.785Z,99.90
2019-05-22T01:03:07.202Z,99.90
2019-05-22T01:05:37.737Z,99.90
2019-05-22T01:08:06.791Z,99.90
2019-05-22T01:10:38.188Z,99.90
2019-05-22T01:13:08.756Z,99.90
2019-05-22T01:15:38.496Z,99.90
2019-05-22T01:18:10.400Z,99.90
2019-05-22T01:20:41.639Z,99.90
2019-05-22T01:23:13.230Z,99.90
2019-05-22T01:25:43.120Z,99.90
2019-05-22T01:28:13.750Z,99.90
2019-05-22T01:30:44.245Z,99.90
2019-05-22T01:33:30.561Z,99.90
2019-05-22T01:36:03.793Z,99.90
2019-05-22T01:38:34.813Z,99.90
2019-05-22T01:41:29.006Z,99.90
2019-05-22T01:44:00.495Z,99.90
2019-05-22T01:46:32.837Z,99.90
2019-05-22T01:49:04.377Z,99.90
2019-05-22T01:51:34.360Z,99.90
2019-05-22T01:54:04.047Z,99.90
2019-05-22T01:56:34.672Z,99.90
2019-05-22T01:59:04.455Z,99.90
2019-05-22T02:01:33.536Z,99.90
2019-05-22T02:04:02.482Z,99.90
2019-05-22T02:06:31.510Z,99.90
2019-05-22T02:09:21.889Z,99.90
2019-05-22T02:11:54.414Z,99.90
2019-05-22T02:14:25.111Z,99.90
2019-05-22T02:16:57.322Z,99.90
2019-05-22T02:19:26.299Z,99.90
2019-05-22T02:21:59.341Z,99.90
2019-05-22T02:24:28.949Z,99.90
2019-05-22T02:26:58.953Z,99.90
2019-05-22T02:29:29.608Z,99.90
2019-05-22T02:31:58.535Z,99.90
2019-05-22T02:34:30.298Z,99.90
2019-05-22T02:37:00.328Z,99.90
2019-05-22T02:39:31.302Z,99.90
2019-05-22T02:42:04.859Z,99.90
2019-05-22T02:44:35.764Z,99.90
2019-05-22T02:47:17.955Z,99.90
2019-05-22T02:49:37.078Z,99.90
2019-05-22T02:52:07.689Z,99.90
2019-05-22T02:54:37.844Z,99.90
2019-05-22T02:57:07.704Z,99.90
2019-05-22T02:59:37.425Z,99.90
2019-05-22T03:02:09.913Z,99.90
2019-05-22T03:04:54.891Z,99.90
2019-05-22T03:07:24.803Z,99.90
2019-05-22T03:09:54.272Z,99.90
2019-05-22T03:12:24.912Z,99.90
2019-05-22T03:14:55.925Z,99.90
2019-05-22T03:17:31.655Z,99.90
2019-05-22T03:20:04.321Z,99.90
2019-05-22T03:22:52.053Z,99.90
2019-05-22T03:25:22.536Z,99.90
2019-05-22T03:27:52.295Z,99.90
2019-05-22T03:30:27.266Z,99.90
2019-05-22T03:32:57.659Z,99.90
2019-05-22T03:35:29.956Z,99.90
2019-05-22T03:38:00.407Z,99.90
2019-05-22T03:40:31.214Z,99.90
2019-05-22T03:43:03.027Z,99.90
2019-05-22T03:45:33.061Z,99.90
2019-05-22T03:48:04.791Z,99.90
2019-05-22T03:50:33.807Z,99.90
2019-05-22T03:53:09.782Z,99.90
2019-05-22T03:55:39.081Z,99.90
2019-05-22T03:58:09.193Z,99.90
2019-05-22T04:00:59.002Z,99.90
2019-05-22T04:03:27.913Z,99.90
2019-05-22T04:05:57.607Z,99.90
2019-05-22T04:08:27.885Z,99.90
2019-05-22T04:11:00.230Z,99.90
2019-05-22T04:13:29.895Z,99.90
2019-05-22T04:15:58.897Z,99.90
2019-05-22T04:18:28.450Z,99.90
2019-05-22T04:20:58.418Z,99.90
2019-05-22T04:23:27.747Z,99.90
2019-05-22T04:25:57.818Z,99.90
2019-05-22T04:28:28.070Z,99.90
2019-05-22T04:30:59.919Z,99.90
2019-05-22T04:33:30.556Z,99.90
2019-05-22T04:36:02.177Z,99.90
2019-05-22T04:38:31.615Z,99.90
2019-05-22T04:41:01.622Z,99.90
2019-05-22T04:43:34.256Z,99.90
2019-05-22T04:46:06.544Z,99.90
2019-05-22T04:48:36.722Z,99.90
2019-05-22T04:51:24.371Z,99.90
2019-05-22T04:53:54.232Z,99.90
2019-05-22T04:56:24.062Z,99.90
2019-05-22T04:58:55.300Z,99.90
2019-05-22T05:01:24.869Z,99.90
2019-05-22T05:03:54.034Z,99.90
2019-05-22T05:06:24.350Z,99.90
2019-05-22T05:08:53.504Z,99.90
2019-05-22T05:11:22.786Z,99.90
2019-05-22T05:16:38.405Z,99.90
2019-05-22T05:19:07.380Z,99.90
2019-05-22T05:21:38.042Z,99.90
2019-05-22T05:24:07.322Z,99.90
2019-05-22T05:26:38.489Z,99.90
2019-05-22T05:29:10.231Z,99.90
2019-05-22T05:31:40.696Z,99.90
2019-05-22T05:34:24.615Z,99.90
2019-05-22T05:36:55.086Z,99.90
2019-05-22T05:39:57.621Z,99.90
2019-05-22T05:42:27.860Z,99.90
2019-05-22T05:44:56.863Z,99.90
2019-05-22T05:47:26.255Z,99.90
2019-05-22T05:49:56.200Z,99.90
2019-05-22T05:52:28.408Z,99.90
2019-05-22T05:54:58.493Z,99.90
2019-05-22T05:57:37.520Z,99.90
2019-05-22T06:00:12.920Z,99.90
2019-05-22T06:02:55.753Z,99.90
2019-05-22T06:05:16.880Z,99.90
2019-05-22T06:07:49.204Z,99.90
2019-05-22T06:10:30.797Z,99.90
2019-05-22T06:13:04.959Z,99.90
2019-05-22T06:15:47.225Z,99.90
2019-05-22T06:18:35.984Z,99.90
2019-05-22T06:21:08.273Z,99.90
2019-05-22T06:23:44.953Z,99.90
2019-05-22T06:26:26.155Z,99.90
2019-05-22T06:29:05.357Z,99.90
2019-05-22T06:32:00.791Z,99.90
2019-05-22T06:34:21.378Z,99.90
2019-05-22T06:36:50.339Z,99.90
2019-05-22T06:39:25.077Z,99.90
2019-05-22T06:41:57.173Z,99.90
2019-05-22T06:44:38.784Z,99.90
2019-05-22T06:47:12.014Z,99.90
2019-05-22T06:49:44.269Z,99.90
2019-05-22T06:52:25.505Z,99.90
2019-05-22T06:55:08.967Z,99.90
2019-05-22T06:57:38.802Z,99.90
2019-05-22T07:00:15.226Z,99.90
2019-05-22T07:02:50.600Z,99.90
2019-05-22T07:05:19.820Z,99.90
2019-05-22T07:08:04.902Z,99.90
2019-05-22T07:10:32.183Z,99.90
2019-05-22T07:13:01.049Z,99.90
2019-05-22T07:15:36.946Z,99.90
2019-05-22T07:18:06.389Z,99.90
2019-05-22T07:20:36.044Z,99.90
2019-05-22T07:23:07.146Z,99.80
2019-05-22T07:25:37.763Z,99.90
2019-05-22T07:28:07.374Z,99.80
2019-05-22T07:30:36.881Z,99.90
2019-05-22T07:33:06.414Z,99.90
2019-05-22T07:35:55.975Z,99.90
2019-05-22T07:38:08.439Z,99.90
2019-05-22T07:40:37.618Z,99.90
2019-05-22T07:43:07.059Z,99.90
2019-05-22T07:45:38.520Z,99.90
2019-05-22T07:48:09.126Z,99.90
2019-05-22T07:50:39.847Z,99.90
2019-05-22T07:53:09.090Z,99.90
2019-05-22T07:55:41.811Z,99.90
2019-05-22T07:58:15.996Z,99.90
2019-05-22T08:00:51.137Z,99.90
2019-05-22T08:03:21.731Z,99.90
2019-05-22T08:05:55.545Z,99.90
2019-05-22T08:08:25.963Z,99.90
2019-05-22T08:10:56.709Z,99.90
2019-05-22T08:13:26.742Z,99.90
2019-05-22T08:15:58.998Z,99.90
2019-05-22T08:18:30.772Z,99.90
2019-05-22T08:21:02.512Z,99.90
2019-05-22T08:23:31.845Z,99.90
2019-05-22T08:26:01.222Z,99.90
2019-05-22T08:28:32.040Z,99.90
2019-05-22T08:31:01.735Z,99.90
2019-05-22T08:33:32.433Z,99.90
2019-05-22T08:36:03.237Z,99.90
2019-05-22T08:38:34.140Z,99.90
2019-05-22T08:41:05.915Z,99.90
2019-05-22T08:43:56.010Z,99.90
2019-05-22T08:46:07.704Z,99.90
2019-05-22T08:48:38.765Z,99.90
2019-05-22T08:51:09.885Z,99.90
2019-05-22T08:53:47.284Z,99.90
2019-05-22T08:56:09.878Z,99.90
2019-05-22T08:58:39.878Z,99.90
2019-05-22T09:01:10.481Z,99.90
2019-05-22T09:03:39.548Z,99.90
2019-05-22T09:06:09.038Z,99.90
2019-05-22T09:08:37.954Z,99.90
2019-05-22T09:11:06.920Z,99.90
2019-05-22T09:13:35.754Z,99.90
2019-05-22T09:16:05.682Z,99.90
2019-05-22T09:18:34.568Z,99.90
2019-05-22T09:21:03.818Z,99.90
2019-05-22T09:23:37.151Z,99.90
2019-05-22T09:26:06.562Z,99.90
2019-05-22T09:28:35.528Z,99.90
2019-05-22T09:31:05.606Z,99.90
2019-05-22T09:33:37.875Z,99.90
2019-05-22T09:36:08.719Z,99.90
2019-05-22T09:38:37.830Z,99.90
2019-05-22T09:41:06.780Z,99.90
2019-05-22T09:43:38.431Z,99.90
2019-05-22T09:46:09.589Z,99.90
2019-05-22T09:48:39.632Z,99.90
2019-05-22T09:51:08.536Z,99.90
2019-05-22T09:53:38.751Z,99.90
2019-05-22T09:56:07.797Z,99.90
2019-05-22T09:58:37.116Z,99.90
2019-05-22T10:01:10.795Z,99.90
2019-05-22T10:03:40.159Z,99.90
2019-05-22T10:06:09.304Z,99.90
2019-05-22T10:08:38.376Z,99.90
2019-05-22T10:11:10.901Z,99.90
2019-05-22T10:13:41.026Z,99.90
2019-05-22T10:16:10.418Z,99.90
2019-05-22T10:18:39.424Z,99.90
2019-05-22T10:21:08.979Z,99.90
2019-05-22T10:23:39.331Z,99.90
2019-05-22T10:26:09.894Z,99.90
2019-05-22T10:28:39.863Z,99.90
2019-05-22T10:31:10.369Z,99.90
2019-05-22T10:33:40.244Z,99.90
2019-05-22T10:36:09.719Z,99.90
2019-05-22T10:38:38.939Z,99.90
2019-05-22T10:41:11.336Z,99.90
2019-05-22T10:43:40.388Z,99.90
2019-05-22T10:46:09.679Z,99.90
2019-05-22T10:48:40.473Z,99.90
2019-05-22T10:51:09.306Z,99.90
2019-05-22T10:53:38.984Z,99.90
2019-05-22T10:56:08.241Z,99.90
2019-05-22T10:58:37.597Z,99.90
2019-05-22T11:01:08.259Z,99.90
2019-05-22T11:03:38.044Z,99.90
2019-05-22T11:06:08.104Z,99.90
2019-05-22T11:08:37.629Z,99.90
2019-05-22T11:11:06.639Z,99.90
2019-05-22T11:13:36.937Z,99.90
2019-05-22T11:16:06.466Z,99.90
2019-05-22T11:18:36.332Z,99.90
2019-05-22T11:21:05.746Z,99.90
2019-05-22T11:23:50.468Z,99.90
2019-05-22T11:26:06.001Z,99.90
2019-05-22T11:28:35.526Z,99.90
2019-05-22T11:31:06.273Z,99.90
2019-05-22T11:33:35.190Z,99.90
2019-05-22T11:36:04.912Z,99.90
2019-05-22T11:38:33.864Z,99.90
2019-05-22T11:41:03.696Z,99.90
2019-05-22T11:43:33.144Z,99.90
2019-05-22T11:46:03.775Z,99.90
2019-05-22T11:48:35.506Z,99.90
2019-05-22T11:51:04.527Z,99.90
2019-05-22T11:53:33.430Z,99.90
2019-05-22T11:56:02.419Z,99.90
2019-05-22T11:58:31.525Z,99.90
2019-05-22T12:01:01.170Z,99.90
2019-05-22T12:03:33.462Z,99.90
2019-05-22T12:06:03.400Z,99.90
2019-05-22T12:08:33.097Z,99.90
2019-05-22T12:11:03.172Z,99.90
2019-05-22T12:13:32.808Z,99.90
2019-05-22T12:16:04.892Z,99.90
2019-05-22T12:18:35.021Z,99.90
2019-05-22T12:21:04.189Z,99.90
2019-05-22T12:23:33.349Z,99.90
2019-05-22T12:26:02.386Z,99.90
2019-05-22T12:28:35.158Z,99.90
2019-05-22T12:31:04.467Z,99.90
2019-05-22T12:33:34.609Z,99.90
2019-05-22T12:36:03.753Z,99.90
2019-05-22T12:38:33.066Z,99.90
2019-05-22T12:41:03.028Z,99.90
2019-05-22T12:43:33.666Z,99.90
2019-05-22T12:46:02.997Z,99.90
2019-05-22T12:48:32.177Z,99.90
2019-05-22T12:51:01.678Z,99.90
2019-05-22T12:53:33.630Z,99.90
2019-05-22T12:56:02.693Z,99.90
2019-05-22T12:58:33.241Z,99.90
2019-05-22T13:01:02.661Z,99.90
2019-05-22T13:03:33.992Z,99.90
2019-05-22T13:06:03.459Z,99.90
2019-05-22T13:08:33.352Z,99.90
2019-05-22T13:11:05.590Z,99.90
2019-05-22T13:13:34.506Z,99.90
2019-05-22T13:16:03.405Z,99.90
2019-05-22T13:18:35.877Z,99.90
2019-05-22T13:21:05.747Z,99.90
2019-05-22T13:23:41.183Z,99.90
2019-05-22T13:26:10.849Z,99.90
2019-05-22T13:28:41.231Z,99.90
2019-05-22T13:31:11.009Z,99.90
2019-05-22T13:33:42.303Z,99.90
2019-05-22T13:36:14.615Z,99.90
2019-05-22T13:38:47.327Z,99.90
2019-05-22T13:41:16.942Z,99.90
2019-05-22T13:43:50.851Z,99.90
2019-05-22T13:46:20.087Z,99.90
2019-05-22T13:48:49.072Z,99.90
2019-05-22T13:51:18.133Z,99.90
2019-05-22T13:53:47.385Z,99.90
2019-05-22T13:56:17.560Z,99.90
2019-05-22T13:58:46.980Z,99.90
2019-05-22T14:01:15.849Z,99.90
2019-05-22T14:03:45.105Z,99.90
2019-05-22T14:06:14.279Z,99.90
2019-05-22T14:08:43.287Z,99.90
2019-05-22T14:11:12.722Z,99.90
2019-05-22T14:13:41.943Z,99.90
2019-05-22T14:16:11.388Z,99.90
2019-05-22T14:18:42.179Z,99.90
2019-05-22T14:21:11.203Z,99.90
2019-05-22T14:23:46.308Z,99.90
2019-05-22T14:26:15.969Z,99.90
2019-05-22T14:28:45.399Z,99.90
2019-05-22T14:31:14.439Z,99.90
2019-05-22T14:33:43.384Z,99.90
2019-05-22T14:36:12.419Z,99.90
2019-05-22T14:38:41.946Z,99.90
2019-05-22T14:41:11.559Z,99.90
2019-05-22T14:43:40.539Z,99.90
2019-05-22T14:46:09.409Z,99.90
2019-05-22T14:48:39.665Z,99.90
2019-05-22T14:51:09.330Z,99.90
2019-05-22T14:53:43.449Z,99.90
2019-05-22T14:56:12.490Z,99.90
2019-05-22T14:58:44.018Z,99.90
2019-05-22T15:01:14.955Z,99.90
2019-05-22T15:03:44.508Z,99.90
2019-05-22T15:06:14.414Z,99.90
2019-05-22T15:08:43.451Z,99.90
2019-05-22T15:11:13.107Z,99.90
2019-05-22T15:13:42.129Z,99.90
2019-05-22T15:16:11.802Z,99.10
2019-05-22T15:18:47.275Z,99.40
2019-05-22T15:21:17.554Z,99.90
2019-05-22T15:23:48.064Z,99.90
2019-05-22T15:26:17.097Z,99.90
2019-05-22T15:28:46.685Z,99.90
2019-05-22T15:31:16.358Z,99.90
2019-05-22T15:33:47.330Z,99.90
2019-05-22T15:36:19.138Z,99.90
2019-05-22T15:38:48.648Z,99.90
2019-05-22T15:41:18.474Z,99.90
2019-05-22T15:43:52.663Z,99.90
2019-05-22T15:46:20.870Z,99.90
2019-05-22T15:48:52.009Z,99.90
2019-05-22T15:51:23.271Z,99.90
2019-05-22T15:54:01.452Z,99.90
2019-05-22T15:56:34.153Z,99.90
2019-05-22T15:59:13.776Z,99.90
2019-05-22T16:01:54.069Z,99.90
2019-05-22T16:04:23.816Z,99.90
2019-05-22T16:06:52.940Z,99.90
2019-05-22T16:09:25.463Z,99.90
2019-05-22T16:12:00.479Z,99.90
2019-05-22T16:14:44.517Z,99.70
2019-05-22T16:17:21.484Z,99.20
2019-05-22T16:19:52.554Z,99.10
2019-05-22T16:22:23.677Z,99.90
2019-05-22T16:24:52.548Z,99.90
2019-05-22T16:27:32.031Z,99.30
2019-05-22T16:30:14.066Z,99.90
2019-05-22T16:32:44.894Z,98.80
2019-05-22T16:35:14.618Z,98.70
2019-05-22T16:37:46.886Z,98.70
2019-05-22T16:40:16.392Z,99.10
2019-05-22T16:42:51.814Z,99.10
2019-05-22T16:45:30.253Z,98.60
2019-05-22T16:48:05.762Z,98.40
2019-05-22T16:50:35.317Z,99.30
2019-05-22T16:53:08.375Z,99.00
2019-05-22T16:55:38.891Z,99.20
2019-05-22T16:58:07.992Z,98.10
2019-05-22T17:00:42.446Z,98.50
2019-05-22T17:03:23.366Z,98.70
2019-05-22T17:06:19.518Z,99.10
2019-05-22T17:09:17.068Z,98.70
2019-05-22T17:11:57.813Z,99.10
2019-05-22T17:14:37.790Z,99.50
2019-05-22T17:17:17.637Z,99.20
2019-05-22T17:19:58.215Z,99.40
2019-05-22T17:22:40.072Z,99.40
2019-05-22T17:25:19.639Z,99.00
2019-05-22T17:28:03.888Z,99.60
2019-05-22T17:30:40.910Z,99.70
2019-05-22T17:33:23.107Z,99.60
2019-05-22T17:36:05.512Z,98.90
2019-05-22T17:38:42.719Z,99.50
2019-05-22T17:41:17.233Z,99.90
2019-05-22T17:43:47.967Z,99.70
2019-05-22T17:46:18.044Z,99.80
2019-05-22T17:48:57.722Z,99.20
2019-05-22T17:51:26.959Z,99.10
2019-05-22T17:53:56.086Z,99.60
2019-05-22T17:56:28.451Z,99.90
2019-05-22T17:58:57.445Z,99.90
2019-05-22T18:01:27.771Z,99.90
2019-05-22T18:03:56.955Z,99.90
2019-05-22T18:06:26.212Z,99.90
2019-05-22T18:09:06.111Z,99.90
2019-05-22T18:11:46.280Z,99.90
2019-05-22T18:14:15.204Z,99.90
2019-05-22T18:16:45.778Z,99.90
2019-05-22T18:19:14.636Z,99.90
2019-05-22T18:21:43.944Z,99.90
2019-05-22T18:24:13.188Z,99.90
2019-05-22T18:26:42.246Z,99.90
2019-05-22T18:29:11.334Z,99.90
2019-05-22T18:31:40.616Z,99.90
2019-05-22T18:34:09.479Z,99.90
2019-05-22T18:36:38.479Z,99.90
2019-05-22T18:39:09.377Z,99.90
2019-05-22T18:41:38.242Z,99.90
2019-05-22T18:44:07.312Z,99.90
2019-05-22T18:46:36.187Z,99.90
2019-05-22T18:49:05.155Z,99.90
2019-05-22T18:51:34.263Z,99.90
2019-05-22T18:54:03.267Z,99.90
2019-05-22T18:56:32.248Z,99.90
2019-05-22T18:59:01.071Z,99.90
2019-05-22T19:01:30.135Z,99.90
2019-05-22T19:03:59.662Z,99.90
2019-05-22T19:06:30.711Z,99.90
2019-05-22T19:08:59.232Z,99.90
2019-05-22T19:11:31.333Z,99.90
2019-05-22T19:14:00.306Z,99.90
2019-05-22T19:16:29.470Z,99.90
2019-05-22T19:19:04.402Z,99.90
2019-05-22T19:21:33.359Z,99.90
2019-05-22T19:24:02.313Z,99.90
2019-05-22T19:26:31.926Z,99.90
2019-05-22T19:29:01.201Z,99.90
2019-05-22T19:31:30.472Z,99.90
2019-05-22T19:33:59.592Z,99.90
2019-05-22T19:36:28.466Z,99.90
2019-05-22T19:38:58.809Z,99.90
2019-05-22T19:41:27.928Z,99.90
2019-05-22T19:43:57.133Z,99.90
2019-05-22T19:46:26.123Z,99.90
2019-05-22T19:48:55.925Z,99.90
2019-05-22T19:51:25.054Z,99.90
2019-05-22T19:53:53.918Z,99.90
2019-05-22T19:56:23.849Z,99.90
2019-05-22T19:58:53.773Z,99.90
2019-05-22T20:01:23.088Z,99.90
2019-05-22T20:03:52.589Z,99.90
2019-05-22T20:06:22.629Z,99.90
2019-05-22T20:08:51.603Z,99.90
2019-05-22T20:11:20.715Z,99.90
2019-05-22T20:13:49.857Z,99.90
2019-05-22T20:16:19.044Z,99.90
2019-05-22T20:18:47.878Z,99.90
2019-05-22T20:21:16.805Z,99.90
2019-05-22T20:23:45.670Z,99.90
2019-05-22T20:26:14.771Z,99.90
2019-05-22T20:28:43.784Z,99.90
2019-05-22T20:31:12.673Z,99.90
2019-05-22T20:33:42.187Z,99.90
2019-05-22T20:36:11.914Z,99.90
2019-05-22T20:38:40.776Z,99.90
2019-05-22T20:41:09.909Z,99.90
2019-05-22T20:43:40.640Z,99.90
2019-05-22T20:46:11.539Z,99.90
2019-05-22T20:48:43.263Z,99.90
2019-05-22T20:51:16.941Z,99.90
2019-05-22T20:53:54.008Z,99.90
2019-05-22T20:56:20.603Z,99.90
2019-05-22T20:58:56.120Z,99.90
2019-05-22T21:01:25.095Z,99.90
2019-05-22T21:03:54.139Z,99.90
2019-05-22T21:06:25.403Z,99.90
2019-05-22T21:08:57.388Z,99.90
2019-05-22T21:11:30.009Z,99.90
2019-05-22T21:14:02.289Z,99.90
2019-05-22T21:16:35.126Z,99.90
2019-05-22T21:19:05.181Z,99.90
2019-05-22T21:21:35.131Z,99.90
2019-05-22T21:24:11.217Z,99.90
2019-05-22T21:26:37.439Z,99.90
2019-05-22T21:29:07.465Z,99.90
2019-05-22T21:31:36.713Z,99.90
2019-05-22T21:34:05.839Z,99.90
2019-05-22T21:36:34.854Z,99.90
2019-05-22T21:39:05.764Z,99.90
2019-05-22T21:41:34.678Z,99.90
2019-05-22T21:44:04.753Z,99.90
2019-05-22T21:46:35.814Z,99.90
2019-05-22T21:49:15.783Z,99.90
2019-05-22T21:51:57.457Z,99.90
2019-05-22T21:54:27.582Z,99.90
2019-05-22T21:56:57.419Z,99.90
2019-05-22T21:59:27.117Z,99.90
2019-05-22T22:02:01.450Z,99.90
2019-05-22T22:04:40.486Z,99.90
2019-05-22T22:07:09.314Z,99.90
2019-05-22T22:09:39.370Z,99.90
2019-05-22T22:12:16.483Z,99.90
2019-05-22T22:14:45.848Z,99.90
2019-05-22T22:17:17.090Z,99.90
2019-05-22T22:19:47.205Z,99.90
2019-05-22T22:22:26.883Z,99.90
2019-05-22T22:25:18.583Z,99.90
2019-05-22T22:27:47.853Z,99.90
2019-05-22T22:30:29.743Z,99.90
2019-05-22T22:33:01.812Z,99.90
2019-05-22T22:35:34.401Z,99.90
2019-05-22T22:38:05.198Z,99.90
2019-05-22T22:40:36.758Z,99.90
2019-05-22T22:43:06.453Z,99.90
2019-05-22T22:45:43.694Z,99.90
2019-05-22T22:48:16.068Z,99.90
2019-05-22T22:50:45.647Z,99.90
2019-05-22T22:53:19.115Z,99.90
2019-05-22T22:55:49.515Z,99.90
2019-05-22T22:58:19.725Z,99.90
2019-05-22T23:00:54.808Z,99.90
2019-05-22T23:03:26.816Z,99.90
2019-05-22T23:05:56.019Z,99.90
2019-05-22T23:08:33.688Z,99.90
2019-05-22T23:11:04.897Z,99.90
2019-05-22T23:13:34.071Z,99.90
2019-05-22T23:16:04.802Z,99.90
2019-05-22T23:18:43.874Z,99.90
2019-05-22T23:21:13.195Z,99.90
2019-05-22T23:23:41.506Z,99.90
2019-05-22T23:26:11.776Z,99.90
2019-05-22T23:28:42.266Z,99.90
2019-05-22T23:31:12.233Z,99.90
2019-05-22T23:33:41.196Z,99.90
2019-05-22T23:36:12.244Z,99.90
2019-05-22T23:38:41.648Z,99.90
2019-05-22T23:41:12.146Z,99.90
2019-05-22T23:43:42.497Z,99.90
2019-05-22T23:46:13.581Z,99.90
2019-05-22T23:48:44.146Z,99.90
2019-05-22T23:51:13.054Z,99.90
2019-05-22T23:53:43.049Z,99.90
2019-05-22T23:56:11.996Z,99.90
2019-05-22T23:58:52.141Z,99.90
